Time;durP1;ratioP1;P1;durP2;ratioP2;P2;SDS_P1;SDS_P2;PMS_P1;PMS_P2;Temp;Humidity;BMP_temperature;BMP_pressure;BME280_temperature;BME280_humidity;BME280_pressure;Samples;Min_cycle;Max_cycle;Signal;HPM_P1;HPM_P2
2023/08/15 00:01:26;;;;;;;1.23;0.45;;;20.40;99.90;;;;;;4164188;28;20168;-87
2023/08/15 00:03:27;;;;;;;0.75;0.47;;;20.40;99.90;;;;;;4164067;28;20668;-88
2023/08/15 00:05:28;;;;;;;2.17;0.47;;;20.40;99.90;;;;;;4163992;28;20203;-88
2023/08/15 00:07:35;;;;;;;3.17;0.82;;;20.40;99.90;;;;;;4164783;28;20200;-88
2023/08/15 00:09:35;;;;;;;1.25;0.45;;;20.20;99.90;;;;;;4163986;28;20502;-87
2023/08/15 00:11:36;;;;;;;2.33;0.75;;;20.30;99.90;;;;;;4163952;28;20168;-87
2023/08/15 00:13:37;;;;;;;4.72;0.68;;;20.30;99.90;;;;;;4164316;28;20180;-87
2023/08/15 00:15:38;;;;;;;2.28;0.98;;;20.30;99.90;;;;;;4180404;28;20167;-88
2023/08/15 00:17:38;;;;;;;1.45;1.00;;;20.20;99.90;;;;;;4163979;28;20176;-87
2023/08/15 00:19:39;;;;;;;7.10;1.75;;;20.20;99.90;;;;;;4163799;28;20243;-87
2023/08/15 00:21:40;;;;;;;2.85;0.88;;;20.30;99.90;;;;;;4197116;28;20620;-87
2023/08/15 00:23:41;;;;;;;2.38;0.75;;;20.40;99.90;;;;;;4180280;28;20237;-87
2023/08/15 00:25:42;;;;;;;3.97;1.70;;;20.40;99.90;;;;;;4164302;28;20269;-87
2023/08/15 00:27:43;;;;;;;2.78;1.10;;;20.30;99.90;;;;;;4164468;28;20168;-88
2023/08/15 00:29:44;;;;;;;3.25;1.33;;;20.30;99.90;;;;;;4183240;28;20199;-88
2023/08/15 00:31:45;;;;;;;2.03;0.55;;;20.30;99.90;;;;;;4166860;28;20208;-87
2023/08/15 00:33:46;;;;;;;1.75;0.68;;;20.30;99.90;;;;;;4166744;28;20179;-87
2023/08/15 00:35:46;;;;;;;4.07;0.95;;;20.30;99.90;;;;;;4166865;28;20661;-88
2023/08/15 00:37:47;;;;;;;1.65;0.65;;;20.40;99.90;;;;;;4183310;28;20267;-88
2023/08/15 00:39:48;;;;;;;1.02;0.50;;;20.50;99.90;;;;;;4166592;28;20279;-88
2023/08/15 00:41:49;;;;;;;1.98;0.65;;;20.30;99.90;;;;;;4166514;28;20760;-88
2023/08/15 00:43:50;;;;;;;7.35;0.40;;;20.20;99.90;;;;;;4166750;28;20533;-88
2023/08/15 00:45:51;;;;;;;4.10;1.10;;;20.00;99.90;;;;;;4166722;28;20182;-88
2023/08/15 00:47:51;;;;;;;3.72;0.80;;;19.90;99.90;;;;;;4166723;28;20676;-87
2023/08/15 00:49:54;;;;;;;2.97;0.95;;;19.80;99.90;;;;;;4166564;28;20222;-87
2023/08/15 00:51:54;;;;;;;3.58;0.73;;;20.00;99.90;;;;;;4183194;28;20629;-87
2023/08/15 00:53:55;;;;;;;1.40;0.50;;;20.20;99.90;;;;;;4183287;28;20168;-88
2023/08/15 00:55:57;;;;;;;3.65;0.65;;;20.10;99.90;;;;;;4166591;28;20168;-88
2023/08/15 00:57:59;;;;;;;4.40;0.80;;;20.00;99.90;;;;;;4182952;28;20185;-88
2023/08/15 00:59:59;;;;;;;2.50;1.13;;;19.90;99.90;;;;;;4199319;28;20695;-88
2023/08/15 01:02:00;;;;;;;3.53;0.93;;;19.80;99.90;;;;;;4166166;28;20172;-90
2023/08/15 01:04:02;;;;;;;1.05;0.70;;;19.90;99.90;;;;;;4166524;28;20218;-87
2023/08/15 01:06:04;;;;;;;4.80;0.90;;;19.90;99.90;;;;;;4166337;28;20180;-88
2023/08/15 01:08:06;;;;;;;3.15;0.70;;;19.80;99.90;;;;;;4166151;28;20165;-87
2023/08/15 01:10:08;;;;;;;4.93;0.55;;;19.60;99.90;;;;;;4166306;28;20230;-87
2023/08/15 01:12:38;;;;;;;2.03;0.40;;;19.90;99.90;;;;;;4166340;28;20180;-88
2023/08/15 01:15:03;;;;;;;2.25;0.40;;;20.00;99.90;;;;;;4135999;28;20215;-88
2023/08/15 01:17:06;;;;;;;1.35;0.60;;;20.20;99.90;;;;;;4182689;28;20176;-88
2023/08/15 01:19:26;;;;;;;3.05;1.15;;;20.20;99.90;;;;;;4182603;28;20203;-88
2023/08/15 01:21:32;;;;;;;1.80;0.70;;;20.20;99.90;;;;;;4182506;28;20179;-88
2023/08/15 01:23:42;;;;;;;4.22;0.65;;;20.20;99.90;;;;;;4165704;28;20708;-87
2023/08/15 01:25:43;;;;;;;1.38;0.50;;;20.20;99.90;;;;;;4166186;28;20172;-88
2023/08/15 01:27:44;;;;;;;3.53;1.42;;;20.20;99.90;;;;;;4166047;28;20179;-88
2023/08/15 01:29:44;;;;;;;0.80;0.60;;;20.20;99.90;;;;;;4182481;28;20542;-87
2023/08/15 01:31:54;;;;;;;3.85;0.82;;;20.00;99.90;;;;;;4165990;28;20236;-87
2023/08/15 01:34:18;;;;;;;1.70;0.30;;;19.80;99.90;;;;;;4166308;28;20210;-88
2023/08/15 01:36:25;;;;;;;1.35;0.30;;;19.70;99.90;;;;;;4166254;28;20172;-87
2023/08/15 01:38:49;;;;;;;1.25;0.60;;;19.60;99.90;;;;;;4198558;28;20171;-88
2023/08/15 01:40:51;;;;;;;1.75;0.45;;;19.60;99.90;;;;;;4181657;28;20203;-87
2023/08/15 01:42:55;;;;;;;3.67;0.50;;;19.60;99.90;;;;;;4165798;28;20196;-87
2023/08/15 01:45:01;;;;;;;2.08;0.80;;;19.70;99.90;;;;;;4182394;28;20266;-87
2023/08/15 01:47:04;;;;;;;3.75;0.82;;;19.60;99.90;;;;;;4198497;28;20178;-88
2023/08/15 01:49:05;;;;;;;0.80;0.32;;;19.60;99.90;;;;;;4165868;28;20210;-87
2023/08/15 01:51:07;;;;;;;2.45;0.98;;;19.50;99.90;;;;;;4182030;28;20183;-87
2023/08/15 01:53:08;;;;;;;2.45;1.10;;;19.50;99.90;;;;;;4165605;28;20172;-86
2023/08/15 01:55:09;;;;;;;0.55;0.30;;;19.40;99.90;;;;;;4165699;28;20637;-88
2023/08/15 01:57:10;;;;;;;2.35;0.50;;;19.40;99.90;;;;;;4182292;28;20228;-87
2023/08/15 01:59:10;;;;;;;1.02;0.50;;;19.50;99.90;;;;;;4182103;28;20656;-87
2023/08/15 02:01:12;;;;;;;5.72;0.80;;;19.50;99.90;;;;;;4165364;28;20211;-87
2023/08/15 02:03:13;;;;;;;0.68;0.38;;;19.40;99.90;;;;;;4181906;28;20688;-88
2023/08/15 02:05:15;;;;;;;3.60;0.65;;;19.40;99.90;;;;;;4182166;28;20309;-87
2023/08/15 02:07:16;;;;;;;4.15;0.98;;;19.30;99.90;;;;;;4165750;28;20176;-87
2023/08/15 02:09:17;;;;;;;3.17;0.82;;;19.30;99.90;;;;;;4165552;28;20176;-88
2023/08/15 02:11:18;;;;;;;3.10;1.05;;;19.40;99.90;;;;;;4165418;28;20196;-87
2023/08/15 02:13:18;;;;;;;1.75;0.52;;;19.40;99.90;;;;;;4181921;28;20253;-88
2023/08/15 02:15:19;;;;;;;2.38;1.17;;;19.40;99.90;;;;;;4181967;28;20640;-88
2023/08/15 02:17:20;;;;;;;2.72;0.60;;;19.40;99.90;;;;;;4164962;28;20537;-88
2023/08/15 02:19:20;;;;;;;2.80;1.13;;;19.30;99.90;;;;;;4165090;28;20164;-87
2023/08/15 02:21:21;;;;;;;1.80;0.50;;;19.30;99.90;;;;;;4198302;28;20174;-87
2023/08/15 02:23:22;;;;;;;2.90;0.82;;;19.20;99.90;;;;;;4165144;28;20589;-87
2023/08/15 02:25:23;;;;;;;2.85;0.80;;;19.20;99.90;;;;;;4165062;28;20172;-87
2023/08/15 02:27:26;;;;;;;1.77;0.63;;;19.20;99.90;;;;;;4181490;28;20555;-87
2023/08/15 02:29:27;;;;;;;4.95;1.45;;;19.20;99.90;;;;;;4181206;28;20172;-88
2023/08/15 02:31:30;;;;;;;1.30;0.77;;;19.30;99.90;;;;;;4181412;28;20186;-87
2023/08/15 02:33:32;;;;;;;3.80;0.73;;;19.20;99.90;;;;;;4197782;28;20635;-87
2023/08/15 02:35:37;;;;;;;3.03;0.82;;;19.20;99.90;;;;;;4164973;28;20521;-87
2023/08/15 02:37:38;;;;;;;3.00;1.30;;;19.20;99.90;;;;;;4181132;28;20602;-87
2023/08/15 02:39:39;;;;;;;2.55;0.50;;;19.20;99.90;;;;;;4181230;28;20191;-87
2023/08/15 02:41:40;;;;;;;1.17;0.57;;;19.30;99.90;;;;;;4181218;28;20179;-88
2023/08/15 02:43:40;;;;;;;1.58;0.88;;;19.30;99.90;;;;;;4180978;28;20200;-88
2023/08/15 02:45:41;;;;;;;2.63;0.77;;;19.20;99.90;;;;;;4164691;28;20235;-87
2023/08/15 02:47:42;;;;;;;2.70;1.13;;;19.20;99.90;;;;;;4164722;28;20176;-88
2023/08/15 02:49:43;;;;;;;3.03;0.90;;;19.20;99.90;;;;;;4181110;28;20195;-88
2023/08/15 02:51:43;;;;;;;2.00;0.90;;;19.20;99.90;;;;;;4180605;28;20181;-87
2023/08/15 02:53:44;;;;;;;2.40;0.80;;;19.10;99.90;;;;;;4181161;28;20176;-87
2023/08/15 02:55:49;;;;;;;2.72;0.70;;;19.00;99.90;;;;;;4164926;28;20172;-87
2023/08/15 02:57:50;;;;;;;2.10;0.90;;;19.00;99.90;;;;;;4197592;28;20270;-87
2023/08/15 02:59:51;;;;;;;1.58;0.95;;;19.00;99.90;;;;;;4164804;28;20180;-88
2023/08/15 03:01:51;;;;;;;1.85;0.70;;;18.90;99.90;;;;;;4164554;28;20681;-88
2023/08/15 03:03:52;;;;;;;3.65;1.17;;;18.80;99.90;;;;;;4181046;28;20203;-88
2023/08/15 03:05:53;;;;;;;2.50;1.13;;;18.90;99.90;;;;;;4164379;28;20184;-87
2023/08/15 03:07:54;;;;;;;5.18;1.80;;;18.90;99.90;;;;;;4181171;28;20190;-87
2023/08/15 03:09:54;;;;;;;0.85;0.47;;;18.90;99.90;;;;;;4164548;28;20211;-87
2023/08/15 03:11:55;;;;;;;1.50;0.68;;;18.80;99.90;;;;;;4164500;28;20168;-88
2023/08/15 03:13:58;;;;;;;2.75;0.80;;;18.90;99.90;;;;;;4164726;28;20298;-88
2023/08/15 03:15:59;;;;;;;4.50;1.45;;;18.80;99.90;;;;;;4164583;28;20172;-88
2023/08/15 03:18:03;;;;;;;8.50;1.77;;;18.70;99.90;;;;;;4164916;28;20207;-88
2023/08/15 03:20:06;;;;;;;4.82;1.20;;;18.70;99.90;;;;;;4164702;28;20196;-87
2023/08/15 03:22:07;;;;;;;0.50;0.50;;;18.60;99.90;;;;;;4180946;28;20183;-88
2023/08/15 03:24:08;;;;;;;3.08;0.90;;;18.70;99.90;;;;;;4180772;28;20193;-88
2023/08/15 03:26:09;;;;;;;7.03;0.70;;;18.60;99.90;;;;;;4164487;28;20564;-87
2023/08/15 03:28:11;;;;;;;1.55;0.80;;;18.60;99.90;;;;;;4164451;28;20214;-87
2023/08/15 03:30:12;;;;;;;2.38;0.70;;;18.60;99.90;;;;;;4180826;28;20626;-88
2023/08/15 03:32:13;;;;;;;1.98;0.73;;;18.50;99.90;;;;;;4164376;28;20258;-88
2023/08/15 03:34:13;;;;;;;4.13;0.98;;;18.40;99.90;;;;;;4164236;28;20663;-87
2023/08/15 03:36:14;;;;;;;1.33;0.50;;;18.60;99.90;;;;;;4164237;28;20644;-87
2023/08/15 03:38:22;;;;;;;1.38;0.77;;;18.70;99.90;;;;;;4181083;28;20164;-88
2023/08/15 03:40:22;;;;;;;1.15;0.85;;;18.70;99.90;;;;;;4164451;28;20188;-88
2023/08/15 03:42:23;;;;;;;1.13;0.63;;;18.60;99.90;;;;;;4181333;28;20616;-88
2023/08/15 03:44:24;;;;;;;1.13;0.75;;;18.60;99.90;;;;;;4164571;28;20177;-87
2023/08/15 03:46:25;;;;;;;2.15;0.85;;;18.50;99.90;;;;;;4164194;28;20179;-88
2023/08/15 03:48:31;;;;;;;3.92;0.85;;;18.50;99.90;;;;;;4164632;28;20225;-87
2023/08/15 03:50:37;;;;;;;4.15;0.95;;;18.50;99.90;;;;;;4197282;28;20202;-88
2023/08/15 03:52:38;;;;;;;0.70;0.60;;;18.40;99.90;;;;;;4163885;28;20215;-88
2023/08/15 03:54:39;;;;;;;3.85;0.90;;;18.30;99.90;;;;;;4163908;28;20180;-87
2023/08/15 03:56:40;;;;;;;2.08;1.00;;;18.30;99.90;;;;;;4164103;28;20187;-87
2023/08/15 03:58:41;;;;;;;2.58;0.80;;;18.30;99.90;;;;;;4180844;28;20176;-87
2023/08/15 04:00:41;;;;;;;5.15;0.90;;;18.30;99.90;;;;;;4164357;28;20264;-87
2023/08/15 04:02:43;;;;;;;2.25;0.80;;;18.30;99.90;;;;;;4166148;28;20204;-87
2023/08/15 04:04:44;;;;;;;3.75;1.35;;;18.30;99.90;;;;;;4167390;28;20203;-87
2023/08/15 04:06:45;;;;;;;1.27;0.60;;;18.40;99.90;;;;;;4183734;28;20175;-87
2023/08/15 04:08:46;;;;;;;3.47;1.13;;;18.40;99.90;;;;;;4200257;28;20639;-88
2023/08/15 04:10:48;;;;;;;1.33;0.57;;;18.40;99.90;;;;;;4167447;28;20196;-88
2023/08/15 04:12:51;;;;;;;3.55;1.17;;;18.40;99.90;;;;;;4184010;28;20172;-87
2023/08/15 04:14:53;;;;;;;1.88;0.82;;;18.60;99.90;;;;;;4184186;28;20183;-87
2023/08/15 04:16:53;;;;;;;4.50;0.80;;;18.60;99.90;;;;;;4167249;28;20187;-87
2023/08/15 04:18:54;;;;;;;1.88;1.13;;;18.50;99.90;;;;;;4167132;28;20184;-94
2023/08/15 04:20:55;;;;;;;8.15;0.82;;;18.50;99.90;;;;;;4166938;28;20208;-88
2023/08/15 04:22:56;;;;;;;4.07;0.90;;;18.50;99.90;;;;;;4183542;28;20230;-87
2023/08/15 04:24:59;;;;;;;1.45;0.98;;;18.70;99.90;;;;;;4167445;28;20264;-94
2023/08/15 04:27:00;;;;;;;1.25;0.75;;;18.50;99.90;;;;;;4167082;28;20263;-87
2023/08/15 04:29:01;;;;;;;1.33;0.95;;;18.60;99.90;;;;;;4167020;28;20652;-87
2023/08/15 04:31:02;;;;;;;1.60;0.80;;;18.60;99.90;;;;;;4166873;28;20286;-87
2023/08/15 04:33:03;;;;;;;0.90;0.50;;;18.60;99.90;;;;;;4166967;28;20176;-88
2023/08/15 04:35:04;;;;;;;4.75;0.90;;;18.70;99.90;;;;;;4166758;28;20191;-87
2023/08/15 04:37:05;;;;;;;2.05;0.45;;;18.50;99.90;;;;;;4183168;28;20168;-87
2023/08/15 04:39:07;;;;;;;2.38;0.77;;;18.40;99.90;;;;;;4183169;28;20199;-87
2023/08/15 04:41:07;;;;;;;4.85;0.90;;;18.50;99.90;;;;;;4166517;28;20691;-88
2023/08/15 04:43:08;;;;;;;3.47;0.70;;;18.40;99.90;;;;;;4166646;28;20279;-87
2023/08/15 04:45:09;;;;;;;1.60;0.77;;;18.50;99.90;;;;;;4166717;28;20214;-88
2023/08/15 04:47:10;;;;;;;6.22;0.88;;;18.50;99.90;;;;;;4183160;28;20183;-87
2023/08/15 04:49:12;;;;;;;3.72;0.85;;;18.60;99.90;;;;;;4166783;28;20240;-88
2023/08/15 04:51:12;;;;;;;1.15;0.93;;;18.60;99.90;;;;;;4166742;28;20239;-87
2023/08/15 04:53:13;;;;;;;7.53;0.85;;;18.80;99.90;;;;;;4183190;28;20167;-87
2023/08/15 04:55:14;;;;;;;0.77;0.50;;;18.70;99.90;;;;;;4166568;28;20215;-88
2023/08/15 04:57:15;;;;;;;2.35;0.80;;;18.80;99.90;;;;;;4182832;28;20163;-87
2023/08/15 04:59:17;;;;;;;5.22;1.35;;;18.90;99.90;;;;;;4183095;28;20683;-94
2023/08/15 05:01:19;;;;;;;2.28;0.65;;;19.00;99.90;;;;;;4183092;28;20176;-87
2023/08/15 05:03:20;;;;;;;1.55;0.45;;;19.20;99.90;;;;;;4166624;28;20216;-88
2023/08/15 05:05:21;;;;;;;3.45;1.25;;;19.20;99.90;;;;;;4166494;28;20522;-87
2023/08/15 05:07:22;;;;;;;1.77;0.70;;;19.20;99.90;;;;;;4183868;28;20262;-96
2023/08/15 05:09:22;;;;;;;3.13;1.00;;;19.30;99.90;;;;;;4184941;28;20361;-89
2023/08/15 05:11:23;;;;;;;1.10;0.65;;;19.30;99.90;;;;;;4168420;28;20176;-95
2023/08/15 05:13:24;;;;;;;2.30;0.80;;;19.40;99.90;;;;;;4165801;28;20172;-88
2023/08/15 05:15:26;;;;;;;2.50;1.00;;;19.50;99.90;;;;;;4166763;28;20173;-88
2023/08/15 05:17:26;;;;;;;1.58;0.73;;;19.60;99.90;;;;;;4166379;28;20171;-87
2023/08/15 05:19:27;;;;;;;4.75;0.82;;;19.60;99.90;;;;;;4182830;28;20167;-94
2023/08/15 05:21:28;;;;;;;2.42;1.10;;;19.50;99.90;;;;;;4166319;28;20633;-95
2023/08/15 05:23:29;;;;;;;5.18;0.70;;;19.50;99.90;;;;;;4182420;28;20226;-92
2023/08/15 05:25:29;;;;;;;2.03;1.05;;;19.50;99.90;;;;;;4166877;28;20207;-88
2023/08/15 05:27:31;;;;;;;2.17;0.88;;;19.50;99.90;;;;;;4166489;28;20271;-88
2023/08/15 05:29:32;;;;;;;2.38;0.88;;;19.50;99.90;;;;;;4166084;28;20177;-88
2023/08/15 05:31:33;;;;;;;0.88;0.68;;;19.60;99.90;;;;;;4166289;28;20179;-87
2023/08/15 05:33:34;;;;;;;1.55;0.80;;;19.60;99.90;;;;;;4166288;28;20656;-87
2023/08/15 05:35:34;;;;;;;2.33;0.70;;;19.50;99.90;;;;;;4166271;28;20267;-87
2023/08/15 05:37:36;;;;;;;5.20;1.40;;;19.50;99.90;;;;;;4182791;28;20206;-95
2023/08/15 05:39:36;;;;;;;5.95;0.70;;;19.30;99.90;;;;;;4166032;28;20180;-87
2023/08/15 05:41:37;;;;;;;5.97;0.95;;;19.20;99.90;;;;;;4182388;28;20176;-94
2023/08/15 05:43:38;;;;;;;3.28;1.10;;;19.10;99.90;;;;;;4166045;28;20343;-94
2023/08/15 05:45:39;;;;;;;7.03;1.05;;;19.00;99.90;;;;;;4182352;28;20171;-89
2023/08/15 05:47:40;;;;;;;2.33;0.70;;;18.90;99.90;;;;;;4165897;28;20211;-88
2023/08/15 05:49:43;;;;;;;2.15;0.75;;;18.90;99.90;;;;;;4166234;28;20615;-94
2023/08/15 05:51:44;;;;;;;2.65;0.55;;;18.90;99.90;;;;;;4166138;28;20176;-88
2023/08/15 05:53:45;;;;;;;4.97;1.48;;;19.00;99.90;;;;;;4165982;28;20687;-88
2023/08/15 05:55:46;;;;;;;2.35;0.90;;;19.00;99.90;;;;;;4166049;28;20212;-88
2023/08/15 05:57:46;;;;;;;4.82;1.02;;;19.10;99.90;;;;;;4182578;28;20164;-88
2023/08/15 05:59:47;;;;;;;1.63;0.82;;;19.30;99.90;;;;;;4166116;28;20207;-88
2023/08/15 06:01:48;;;;;;;1.27;0.55;;;19.30;99.90;;;;;;4165725;28;20168;-87
2023/08/15 06:03:49;;;;;;;1.77;0.93;;;19.50;99.90;;;;;;4165663;28;20212;-87
2023/08/15 06:05:50;;;;;;;2.55;0.77;;;19.50;99.90;;;;;;4165943;28;20248;-87
2023/08/15 06:07:51;;;;;;;3.47;0.88;;;19.60;99.90;;;;;;4165686;28;20270;-88
2023/08/15 06:09:52;;;;;;;5.18;1.48;;;19.80;99.90;;;;;;4182362;28;20663;-88
2023/08/15 06:11:52;;;;;;;5.57;0.90;;;20.10;99.90;;;;;;4165583;28;20176;-94
2023/08/15 06:13:53;;;;;;;2.67;0.98;;;20.40;99.90;;;;;;4165926;28;20176;-94
2023/08/15 06:15:54;;;;;;;1.55;0.65;;;20.40;99.90;;;;;;4165417;28;20179;-95
2023/08/15 06:17:54;;;;;;;3.45;1.15;;;20.50;99.90;;;;;;4165498;28;20179;-87
2023/08/15 06:19:55;;;;;;;7.68;1.23;;;20.60;99.90;;;;;;4198518;28;20575;-94
2023/08/15 06:21:56;;;;;;;1.00;0.73;;;20.40;99.90;;;;;;4165915;28;20188;-87
2023/08/15 06:23:57;;;;;;;2.50;0.88;;;20.10;99.90;;;;;;4182800;28;20207;-95
2023/08/15 06:25:57;;;;;;;0.50;0.50;;;20.10;99.90;;;;;;4165491;28;20251;-88
2023/08/15 06:27:58;;;;;;;1.65;1.02;;;20.10;99.90;;;;;;4165436;28;20172;-95
2023/08/15 06:29:59;;;;;;;1.83;0.98;;;20.20;99.90;;;;;;4165476;28;20188;-87
2023/08/15 06:32:00;;;;;;;3.20;0.90;;;20.40;99.90;;;;;;4165247;28;20172;-87
2023/08/15 06:34:02;;;;;;;1.35;0.90;;;20.50;99.90;;;;;;4165347;28;20203;-87
2023/08/15 06:36:03;;;;;;;6.43;1.30;;;20.50;99.90;;;;;;4165491;28;20180;-88
2023/08/15 06:38:03;;;;;;;2.40;0.70;;;20.50;99.90;;;;;;4181938;28;20194;-88
2023/08/15 06:40:07;;;;;;;7.82;2.17;;;20.80;99.90;;;;;;4165408;28;20332;-87
2023/08/15 06:42:09;;;;;;;4.63;1.48;;;20.80;99.90;;;;;;4182020;28;20175;-88
2023/08/15 06:44:09;;;;;;;1.92;1.00;;;20.80;99.90;;;;;;4165844;28;20184;-88
2023/08/15 06:46:14;;;;;;;2.15;1.05;;;20.80;99.90;;;;;;4165209;28;20230;-88
2023/08/15 06:48:15;;;;;;;3.55;1.05;;;20.90;99.90;;;;;;4165156;28;20228;-95
2023/08/15 06:50:15;;;;;;;5.50;1.33;;;21.00;99.90;;;;;;4181701;28;20191;-95
2023/08/15 06:52:16;;;;;;;5.25;1.58;;;21.20;99.90;;;;;;4166737;28;20176;-88
2023/08/15 06:54:18;;;;;;;3.53;0.68;;;21.20;99.90;;;;;;4181815;28;20249;-88
2023/08/15 06:56:19;;;;;;;1.88;1.00;;;21.20;99.90;;;;;;4165278;28;20242;-88
2023/08/15 06:58:20;;;;;;;2.17;0.47;;;21.20;99.90;;;;;;4165486;28;20530;-88
2023/08/15 07:00:21;;;;;;;1.30;0.85;;;21.30;99.90;;;;;;4165280;28;20328;-94
2023/08/15 07:02:22;;;;;;;3.63;0.90;;;21.40;99.90;;;;;;4181435;28;20164;-87
2023/08/15 07:04:23;;;;;;;10.38;1.58;;;21.50;99.90;;;;;;4164668;28;20188;-87
2023/08/15 07:06:24;;;;;;;1.20;0.68;;;21.50;99.90;;;;;;4164681;28;20666;-88
2023/08/15 07:08:25;;;;;;;1.88;0.80;;;21.60;99.90;;;;;;4164937;28;20183;-88
2023/08/15 07:10:26;;;;;;;1.60;0.95;;;21.80;99.90;;;;;;4164650;28;20747;-88
2023/08/15 07:12:26;;;;;;;1.52;0.68;;;21.90;99.90;;;;;;4165034;28;20188;-95
2023/08/15 07:14:27;;;;;;;3.03;1.15;;;22.00;99.90;;;;;;4181044;28;20262;-88
2023/08/15 07:16:28;;;;;;;1.38;0.75;;;22.20;99.90;;;;;;4164699;28;20274;-87
2023/08/15 07:18:29;;;;;;;1.40;0.80;;;22.40;99.90;;;;;;4182631;28;20371;-87
2023/08/15 07:20:29;;;;;;;2.90;1.45;;;23.10;99.90;;;;;;4181254;28;20237;-88
2023/08/15 07:22:30;;;;;;;2.55;1.38;;;24.50;99.90;;;;;;4197858;28;22137;-88
2023/08/15 07:24:31;;;;;;;1.42;0.98;;;25.80;99.90;;;;;;4164807;28;20276;-88
2023/08/15 07:26:32;;;;;;;2.65;1.02;;;26.90;99.90;;;;;;4181043;28;20172;-88
2023/08/15 07:28:32;;;;;;;2.85;1.23;;;27.90;99.90;;;;;;4164796;28;20259;-88
2023/08/15 07:30:33;;;;;;;1.17;0.65;;;28.70;99.90;;;;;;4164539;28;20278;-88
2023/08/15 07:32:36;;;;;;;5.22;1.17;;;29.20;99.90;;;;;;4164521;28;20176;-88
2023/08/15 07:34:37;;;;;;;1.80;0.80;;;29.60;99.90;;;;;;4164963;28;20203;-89
2023/08/15 07:36:38;;;;;;;2.42;0.98;;;30.10;99.90;;;;;;4165116;28;20195;-94
2023/08/15 07:38:38;;;;;;;1.13;0.70;;;30.40;99.90;;;;;;4168250;28;20195;-89
2023/08/15 07:40:39;;;;;;;1.75;0.80;;;30.90;99.90;;;;;;4184866;28;20578;-89
2023/08/15 07:42:42;;;;;;;3.55;0.80;;;30.80;99.90;;;;;;4184247;28;20756;-88
2023/08/15 07:44:43;;;;;;;2.45;1.05;;;30.70;99.90;;;;;;4168125;28;20184;-89
2023/08/15 07:46:44;;;;;;;1.58;0.70;;;31.10;99.90;;;;;;4184463;28;20168;-89
2023/08/15 07:48:45;;;;;;;2.42;0.85;;;31.80;99.90;;;;;;4168573;28;20199;-87
2023/08/15 07:50:45;;;;;;;1.45;0.80;;;32.10;99.90;;;;;;4168253;28;20250;-88
2023/08/15 07:52:46;;;;;;;1.30;0.70;;;32.00;99.90;;;;;;4168268;28;20176;-89
2023/08/15 07:54:47;;;;;;;1.00;0.90;;;32.20;99.90;;;;;;4169013;28;20168;-89
2023/08/15 07:56:48;;;;;;;1.25;0.68;;;32.10;99.90;;;;;;4168492;28;20168;-95
2023/08/15 07:58:50;;;;;;;4.53;1.05;;;32.50;99.90;;;;;;4167794;28;20207;-89
2023/08/15 08:00:50;;;;;;;1.95;1.00;;;33.10;99.90;;;;;;4167642;28;20218;-88
2023/08/15 08:02:52;;;;;;;3.45;0.93;;;33.10;99.90;;;;;;4168440;28;20207;-88
2023/08/15 08:04:53;;;;;;;2.80;1.08;;;32.90;99.90;;;;;;4168766;28;20183;-88
2023/08/15 08:06:53;;;;;;;2.60;0.98;;;33.40;99.90;;;;;;4185796;28;20228;-88
2023/08/15 08:08:54;;;;;;;2.20;0.82;;;33.80;99.90;;;;;;4169915;28;20175;-89
2023/08/15 08:10:55;;;;;;;2.85;1.15;;;34.30;99.90;;;;;;4169224;28;20183;-89
2023/08/15 08:12:58;;;;;;;1.13;0.65;;;34.60;99.90;;;;;;4168649;28;20210;-93
2023/08/15 08:14:59;;;;;;;1.90;0.82;;;34.40;99.90;;;;;;4185036;28;20540;-92
2023/08/15 08:17:00;;;;;;;2.45;1.35;;;34.80;99.90;;;;;;4169635;28;20214;-88
2023/08/15 08:19:01;;;;;;;1.52;0.90;;;34.30;99.90;;;;;;4184894;28;20175;-89
2023/08/15 08:21:03;;;;;;;0.93;0.55;;;33.40;99.90;;;;;;4168561;28;20286;-88
2023/08/15 08:23:04;;;;;;;3.40;1.38;;;33.60;99.90;;;;;;4169174;28;20204;-88
2023/08/15 08:25:18;;;;;;;2.95;0.60;;;33.40;99.90;;;;;;4185086;28;20171;-89
2023/08/15 08:27:18;;;;;;;1.05;0.85;;;34.10;99.90;;;;;;4169131;28;20206;-88
2023/08/15 08:29:19;;;;;;;2.28;0.70;;;33.10;99.90;;;;;;4167065;28;20641;-91
2023/08/15 08:31:20;;;;;;;1.38;0.70;;;33.00;99.90;;;;;;4168749;28;20253;-93
2023/08/15 08:33:21;;;;;;;1.52;0.75;;;33.20;99.90;;;;;;4185481;28;20246;-89
2023/08/15 08:35:22;;;;;;;1.15;0.52;;;33.00;99.90;;;;;;4169647;28;20183;-88
2023/08/15 08:37:23;;;;;;;1.60;0.60;;;32.70;99.90;;;;;;4169482;28;20171;-89
2023/08/15 08:39:23;;;;;;;2.03;0.70;;;32.20;99.90;;;;;;4168946;28;20230;-89
2023/08/15 08:41:24;;;;;;;0.90;0.40;;;31.40;99.90;;;;;;4167704;28;20172;-96
2023/08/15 08:43:25;;;;;;;0.55;0.40;;;31.00;99.90;;;;;;4168916;28;20207;-89
2023/08/15 08:45:29;;;;;;;1.42;0.55;;;32.10;99.90;;;;;;4184663;28;20213;-94
2023/08/15 08:47:32;;;;;;;1.73;0.38;;;32.70;99.90;;;;;;4168417;28;20184;-89
2023/08/15 08:49:37;;;;;;;3.85;1.05;;;33.10;99.90;;;;;;4183237;28;20175;-96
2023/08/15 08:51:39;;;;;;;1.52;0.43;;;32.50;99.90;;;;;;4202578;28;20167;-89
2023/08/15 08:53:40;;;;;;;1.67;0.55;;;32.30;99.90;;;;;;4168030;28;20644;-90
2023/08/15 08:55:41;;;;;;;0.88;0.45;;;32.20;99.90;;;;;;4168698;28;20183;-89
2023/08/15 08:57:47;;;;;;;1.25;0.50;;;32.60;99.90;;;;;;4184118;28;20182;-89
2023/08/15 08:59:49;;;;;;;2.55;0.35;;;32.60;99.90;;;;;;4169292;28;20198;-89
2023/08/15 09:01:50;;;;;;;3.55;2.22;;;33.00;99.90;;;;;;4171345;28;20194;-95
2023/08/15 09:03:51;;;;;;;1.15;0.50;;;33.20;99.90;;;;;;4168258;28;20250;-89
2023/08/15 09:05:52;;;;;;;0.70;0.30;;;32.60;99.90;;;;;;4168784;28;20193;-96
2023/08/15 09:07:53;;;;;;;0.60;0.43;;;32.60;99.90;;;;;;4168082;28;20183;-90
2023/08/15 09:09:54;;;;;;;1.10;0.47;;;32.60;99.90;;;;;;4184265;28;20242;-90
2023/08/15 09:11:54;;;;;;;0.73;0.25;;;33.10;99.90;;;;;;4167575;28;20167;-89
2023/08/15 09:13:55;;;;;;;2.05;0.82;;;33.60;99.90;;;;;;4185039;28;20182;-89
2023/08/15 09:15:58;;;;;;;2.78;0.80;;;33.00;99.90;;;;;;4167909;28;20168;-89
2023/08/15 09:18:00;;;;;;;1.58;0.75;;;33.00;99.90;;;;;;4168710;28;20207;-90
2023/08/15 09:20:10;;;;;;;1.33;0.40;;;32.80;99.90;;;;;;4169616;28;20199;-90
2023/08/15 09:22:20;;;;;;;0.60;0.40;;;33.50;99.90;;;;;;4187407;28;20213;-90
2023/08/15 09:24:27;;;;;;;1.60;0.85;;;34.50;99.90;;;;;;4169996;28;20214;-90
2023/08/15 09:26:32;;;;;;;1.00;0.50;;;34.40;99.90;;;;;;4186491;28;20174;-90
2023/08/15 09:28:43;;;;;;;0.60;0.30;;;33.70;99.90;;;;;;4202270;28;20253;-89
2023/08/15 09:30:53;;;;;;;0.45;0.35;;;33.30;99.90;;;;;;4169277;28;20192;-95
2023/08/15 09:32:54;;;;;;;0.88;0.40;;;32.50;99.90;;;;;;4168460;28;20221;-96
2023/08/15 09:34:54;;;;;;;1.08;0.40;;;32.30;99.90;;;;;;4183061;28;20174;-89
2023/08/15 09:36:55;;;;;;;1.95;0.40;;;33.50;99.90;;;;;;4169662;28;20532;-89
2023/08/15 09:38:58;;;;;;;0.63;0.40;;;33.40;99.90;;;;;;4167111;28;20179;-95
2023/08/15 09:40:59;;;;;;;0.82;0.20;;;33.50;99.90;;;;;;4185375;28;20313;-96
2023/08/15 09:43:02;;;;;;;1.63;0.50;;;34.10;99.90;;;;;;4184343;28;20520;-93
2023/08/15 09:45:04;;;;;;;0.65;0.35;;;33.30;99.90;;;;;;4184629;28;20254;-91
2023/08/15 09:47:07;;;;;;;1.75;0.50;;;33.70;99.90;;;;;;4184593;28;20281;-96
2023/08/15 09:49:08;;;;;;;0.65;0.28;;;33.80;99.90;;;;;;4182825;28;20650;-90
2023/08/15 09:51:11;;;;;;;0.93;0.30;;;34.50;99.90;;;;;;4168233;28;20368;-93
2023/08/15 09:53:13;;;;;;;0.55;0.30;;;34.20;99.90;;;;;;4184232;28;20677;-96
2023/08/15 09:55:16;;;;;;;0.30;0.20;;;33.10;99.90;;;;;;4185214;28;20274;-88
2023/08/15 09:57:16;;;;;;;0.98;0.40;;;32.00;99.90;;;;;;4169011;28;20178;-89
2023/08/15 09:59:17;;;;;;;0.30;0.30;;;31.60;99.90;;;;;;4183661;28;20170;-96
2023/08/15 10:01:23;;;;;;;2.13;0.30;;;32.10;99.90;;;;;;4167038;28;20192;-90
2023/08/15 10:03:39;;;;;;;0.28;0.28;;;32.50;99.90;;;;;;4184602;28;20198;-96
2023/08/15 10:05:45;;;;;;;0.20;0.20;;;32.60;99.90;;;;;;4167117;28;20179;-92
2023/08/15 10:07:47;;;;;;;1.00;0.20;;;32.50;99.90;;;;;;4201345;28;20166;-88
2023/08/15 10:09:50;;;;;;;0.68;0.40;;;33.40;99.90;;;;;;4201471;28;20291;-96
2023/08/15 10:11:52;;;;;;;0.22;0.20;;;33.40;99.90;;;;;;4167655;28;20263;-90
2023/08/15 10:13:53;;;;;;;2.05;0.47;;;32.70;99.90;;;;;;4167243;28;20175;-88
2023/08/15 10:15:55;;;;;;;0.75;0.30;;;32.50;99.90;;;;;;4183379;28;20167;-89
2023/08/15 10:17:57;;;;;;;0.60;0.30;;;32.20;99.90;;;;;;4184075;28;20261;-89
2023/08/15 10:20:05;;;;;;;0.80;0.35;;;31.90;99.90;;;;;;4167726;28;20187;-96
2023/08/15 10:22:06;;;;;;;1.38;0.30;;;30.80;99.90;;;;;;4183086;28;20261;-96
2023/08/15 10:24:09;;;;;;;1.67;0.50;;;30.10;99.90;;;;;;4182902;28;20219;-88
2023/08/15 10:26:10;;;;;;;0.60;0.30;;;29.70;99.90;;;;;;4165823;28;20171;-88
2023/08/15 10:28:12;;;;;;;4.38;0.32;;;29.60;99.90;;;;;;4183749;28;20278;-88
2023/08/15 10:30:30;;;;;;;0.85;0.57;;;29.50;99.90;;;;;;4165792;28;20192;-89
2023/08/15 10:32:33;;;;;;;1.60;0.40;;;29.20;99.90;;;;;;4166370;28;20541;-88
2023/08/15 10:34:33;;;;;;;1.00;0.40;;;28.90;99.90;;;;;;4182621;28;20167;-88
2023/08/15 10:36:35;;;;;;;0.82;0.20;;;28.50;99.90;;;;;;4182101;28;20248;-88